sensor_id;sensor_type;location;lat;lon;timestamp;P1;durP1;ratioP1;P2;durP2;ratioP2
74543;SDS011;63016;55.030;38.710;2022-12-07T00:03:48;12.98;;;5.07;;
74543;SDS011;63016;55.030;38.710;2022-12-07T00:06:15;13.95;;;5.28;;
74543;SDS011;63016;55.030;38.710;2022-12-07T00:08:42;11.27;;;4.88;;
74543;SDS011;63016;55.030;38.710;2022-12-07T00:11:15;11.07;;;4.63;;
74543;SDS011;63016;55.030;38.710;2022-12-07T00:13:45;14.35;;;4.55;;
74543;SDS011;63016;55.030;38.710;2022-12-07T00:16:15;14.02;;;5.05;;
74543;SDS011;63016;55.030;38.710;2022-12-07T00:18:42;11.23;;;4.45;;
74543;SDS011;63016;55.030;38.710;2022-12-07T00:21:12;14.52;;;5.07;;
74543;SDS011;63016;55.030;38.710;2022-12-07T00:23:39;14.15;;;4.47;;
74543;SDS011;63016;55.030;38.710;2022-12-07T00:26:06;15.05;;;4.93;;
74543;SDS011;63016;55.030;38.710;2022-12-07T00:28:40;15.23;;;4.28;;
74543;SDS011;63016;55.030;38.710;2022-12-07T00:31:10;9.90;;;4.05;;
74543;SDS011;63016;55.030;38.710;2022-12-07T00:33:37;12.75;;;4.32;;
74543;SDS011;63016;55.030;38.710;2022-12-07T00:36:07;11.27;;;4.82;;
74543;SDS011;63016;55.030;38.710;2022-12-07T00:38:38;12.02;;;3.97;;
74543;SDS011;63016;55.030;38.710;2022-12-07T00:41:05;12.85;;;4.55;;
74543;SDS011;63016;55.030;38.710;2022-12-07T00:43:38;14.25;;;4.50;;
74543;SDS011;63016;55.030;38.710;2022-12-07T00:46:03;11.93;;;4.35;;
74543;SDS011;63016;55.030;38.710;2022-12-07T00:48:29;15.55;;;4.85;;
74543;SDS011;63016;55.030;38.710;2022-12-07T00:50:55;11.80;;;4.70;;
74543;SDS011;63016;55.030;38.710;2022-12-07T00:53:21;11.73;;;4.60;;
74543;SDS011;63016;55.030;38.710;2022-12-07T00:55:47;11.82;;;4.55;;
74543;SDS011;63016;55.030;38.710;2022-12-07T00:58:12;10.65;;;4.15;;
74543;SDS011;63016;55.030;38.710;2022-12-07T01:00:38;10.00;;;4.28;;
74543;SDS011;63016;55.030;38.710;2022-12-07T01:03:06;10.95;;;3.78;;
74543;SDS011;63016;55.030;38.710;2022-12-07T01:05:33;11.30;;;4.50;;
74543;SDS011;63016;55.030;38.710;2022-12-07T01:07:59;13.75;;;4.40;;
74543;SDS011;63016;55.030;38.710;2022-12-07T01:10:26;9.63;;;4.10;;
74543;SDS011;63016;55.030;38.710;2022-12-07T01:12:52;12.73;;;4.22;;
74543;SDS011;63016;55.030;38.710;2022-12-07T01:15:18;13.38;;;3.83;;
74543;SDS011;63016;55.030;38.710;2022-12-07T01:17:44;14.75;;;4.55;;
74543;SDS011;63016;55.030;38.710;2022-12-07T01:20:09;13.25;;;4.13;;
74543;SDS011;63016;55.030;38.710;2022-12-07T01:22:36;12.88;;;4.13;;
74543;SDS011;63016;55.030;38.710;2022-12-07T01:25:03;8.68;;;4.00;;
74543;SDS011;63016;55.030;38.710;2022-12-07T01:27:30;10.27;;;4.00;;
74543;SDS011;63016;55.030;38.710;2022-12-07T01:29:56;9.15;;;3.65;;
74543;SDS011;63016;55.030;38.710;2022-12-07T01:32:21;11.95;;;3.80;;
74543;SDS011;63016;55.030;38.710;2022-12-07T01:34:49;9.02;;;4.03;;
74543;SDS011;63016;55.030;38.710;2022-12-07T01:37:15;10.00;;;3.47;;
74543;SDS011;63016;55.030;38.710;2022-12-07T01:39:40;12.32;;;3.95;;
74543;SDS011;63016;55.030;38.710;2022-12-07T01:42:10;11.10;;;3.90;;
74543;SDS011;63016;55.030;38.710;2022-12-07T01:47:39;9.50;;;4.30;;
74543;SDS011;63016;55.030;38.710;2022-12-07T01:50:06;11.10;;;4.45;;
74543;SDS011;63016;55.030;38.710;2022-12-07T01:52:32;9.73;;;4.18;;
74543;SDS011;63016;55.030;38.710;2022-12-07T01:55:01;10.48;;;3.97;;
74543;SDS011;63016;55.030;38.710;2022-12-07T01:57:30;10.55;;;3.75;;
74543;SDS011;63016;55.030;38.710;2022-12-07T01:59:57;11.68;;;3.90;;
74543;SDS011;63016;55.030;38.710;2022-12-07T02:02:27;13.38;;;4.65;;
74543;SDS011;63016;55.030;38.710;2022-12-07T02:04:57;10.20;;;4.13;;
74543;SDS011;63016;55.030;38.710;2022-12-07T02:07:25;13.63;;;4.55;;
74543;SDS011;63016;55.030;38.710;2022-12-07T02:09:51;10.98;;;3.47;;
74543;SDS011;63016;55.030;38.710;2022-12-07T02:12:17;9.43;;;3.17;;
74543;SDS011;63016;55.030;38.710;2022-12-07T02:14:43;9.80;;;3.78;;
74543;SDS011;63016;55.030;38.710;2022-12-07T02:31:26;9.38;;;3.70;;
74543;SDS011;63016;55.030;38.710;2022-12-07T02:34:04;9.80;;;3.92;;
74543;SDS011;63016;55.030;38.710;2022-12-07T02:36:37;9.73;;;3.58;;
74543;SDS011;63016;55.030;38.710;2022-12-07T02:39:16;8.63;;;3.38;;
74543;SDS011;63016;55.030;38.710;2022-12-07T02:41:49;11.52;;;3.53;;
74543;SDS011;63016;55.030;38.710;2022-12-07T02:44:22;11.32;;;3.88;;
74543;SDS011;63016;55.030;38.710;2022-12-07T02:46:52;8.95;;;3.78;;
74543;SDS011;63016;55.030;38.710;2022-12-07T02:49:21;14.05;;;4.00;;
74543;SDS011;63016;55.030;38.710;2022-12-07T02:51:51;11.43;;;4.40;;
74543;SDS011;63016;55.030;38.710;2022-12-07T02:54:18;9.05;;;3.65;;
74543;SDS011;63016;55.030;38.710;2022-12-07T03:07:39;9.95;;;3.60;;
74543;SDS011;63016;55.030;38.710;2022-12-07T03:18:24;12.02;;;4.05;;
74543;SDS011;63016;55.030;38.710;2022-12-07T03:20:53;11.50;;;4.43;;
74543;SDS011;63016;55.030;38.710;2022-12-07T03:23:22;12.48;;;4.50;;
74543;SDS011;63016;55.030;38.710;2022-12-07T03:25:52;8.88;;;3.85;;
74543;SDS011;63016;55.030;38.710;2022-12-07T03:28:23;13.23;;;4.68;;
74543;SDS011;63016;55.030;38.710;2022-12-07T03:31:05;12.45;;;5.03;;
74543;SDS011;63016;55.030;38.710;2022-12-07T03:36:35;10.40;;;4.18;;
74543;SDS011;63016;55.030;38.710;2022-12-07T03:39:12;13.82;;;4.72;;
74543;SDS011;63016;55.030;38.710;2022-12-07T03:41:54;12.57;;;4.47;;
74543;SDS011;63016;55.030;38.710;2022-12-07T03:44:22;12.23;;;4.93;;
74543;SDS011;63016;55.030;38.710;2022-12-07T03:46:57;13.73;;;4.78;;
74543;SDS011;63016;55.030;38.710;2022-12-07T03:49:33;15.93;;;4.93;;
74543;SDS011;63016;55.030;38.710;2022-12-07T03:52:18;16.95;;;4.53;;
74543;SDS011;63016;55.030;38.710;2022-12-07T03:55:02;15.43;;;4.95;;
74543;SDS011;63016;55.030;38.710;2022-12-07T03:57:33;16.33;;;4.30;;
74543;SDS011;63016;55.030;38.710;2022-12-07T04:00:03;11.02;;;4.35;;
74543;SDS011;63016;55.030;38.710;2022-12-07T04:02:30;11.63;;;4.53;;
74543;SDS011;63016;55.030;38.710;2022-12-07T04:04:58;11.05;;;4.25;;
74543;SDS011;63016;55.030;38.710;2022-12-07T04:07:23;14.65;;;4.05;;
74543;SDS011;63016;55.030;38.710;2022-12-07T04:09:49;14.23;;;4.53;;
74543;SDS011;63016;55.030;38.710;2022-12-07T04:12:14;10.82;;;4.18;;
74543;SDS011;63016;55.030;38.710;2022-12-07T04:14:40;14.10;;;4.55;;
74543;SDS011;63016;55.030;38.710;2022-12-07T04:17:05;14.00;;;4.25;;
74543;SDS011;63016;55.030;38.710;2022-12-07T04:19:32;15.98;;;4.78;;
74543;SDS011;63016;55.030;38.710;2022-12-07T04:22:00;12.70;;;3.78;;
74543;SDS011;63016;55.030;38.710;2022-12-07T04:24:26;15.05;;;4.78;;
74543;SDS011;63016;55.030;38.710;2022-12-07T04:26:52;17.20;;;5.20;;
74543;SDS011;63016;55.030;38.710;2022-12-07T04:29:18;13.38;;;4.68;;
74543;SDS011;63016;55.030;38.710;2022-12-07T04:31:44;10.93;;;4.72;;
74543;SDS011;63016;55.030;38.710;2022-12-07T04:34:10;12.80;;;4.57;;
74543;SDS011;63016;55.030;38.710;2022-12-07T04:36:36;22.08;;;4.72;;
74543;SDS011;63016;55.030;38.710;2022-12-07T04:39:03;12.30;;;4.53;;
74543;SDS011;63016;55.030;38.710;2022-12-07T04:41:30;14.82;;;4.28;;
74543;SDS011;63016;55.030;38.710;2022-12-07T04:43:57;11.70;;;4.22;;
74543;SDS011;63016;55.030;38.710;2022-12-07T04:46:24;14.30;;;5.03;;
74543;SDS011;63016;55.030;38.710;2022-12-07T04:48:51;14.35;;;4.93;;
74543;SDS011;63016;55.030;38.710;2022-12-07T04:51:24;14.30;;;4.38;;
74543;SDS011;63016;55.030;38.710;2022-12-07T04:53:51;11.13;;;4.28;;
74543;SDS011;63016;55.030;38.710;2022-12-07T04:56:17;16.75;;;4.15;;
74543;SDS011;63016;55.030;38.710;2022-12-07T04:58:44;14.55;;;4.35;;
74543;SDS011;63016;55.030;38.710;2022-12-07T05:01:12;11.30;;;4.30;;
74543;SDS011;63016;55.030;38.710;2022-12-07T05:03:38;19.00;;;4.82;;
74543;SDS011;63016;55.030;38.710;2022-12-07T05:06:04;11.57;;;4.40;;
74543;SDS011;63016;55.030;38.710;2022-12-07T05:08:31;17.92;;;5.05;;
74543;SDS011;63016;55.030;38.710;2022-12-07T05:10:58;12.60;;;4.97;;
74543;SDS011;63016;55.030;38.710;2022-12-07T05:13:24;10.73;;;3.38;;
74543;SDS011;63016;55.030;38.710;2022-12-07T05:15:49;12.13;;;4.35;;
74543;SDS011;63016;55.030;38.710;2022-12-07T05:18:15;16.65;;;4.45;;
74543;SDS011;63016;55.030;38.710;2022-12-07T05:20:41;12.27;;;4.15;;
74543;SDS011;63016;55.030;38.710;2022-12-07T05:23:07;12.57;;;4.78;;
74543;SDS011;63016;55.030;38.710;2022-12-07T05:25:33;14.65;;;4.20;;
74543;SDS011;63016;55.030;38.710;2022-12-07T05:27:59;19.17;;;4.70;;
74543;SDS011;63016;55.030;38.710;2022-12-07T05:30:25;17.33;;;4.55;;
74543;SDS011;63016;55.030;38.710;2022-12-07T05:32:51;15.25;;;4.20;;
74543;SDS011;63016;55.030;38.710;2022-12-07T05:35:17;16.77;;;4.35;;
74543;SDS011;63016;55.030;38.710;2022-12-07T05:37:43;16.13;;;4.57;;
74543;SDS011;63016;55.030;38.710;2022-12-07T05:40:10;15.55;;;4.18;;
74543;SDS011;63016;55.030;38.710;2022-12-07T05:42:36;14.98;;;4.55;;
74543;SDS011;63016;55.030;38.710;2022-12-07T05:45:02;14.00;;;4.07;;
74543;SDS011;63016;55.030;38.710;2022-12-07T05:47:28;11.43;;;4.15;;
74543;SDS011;63016;55.030;38.710;2022-12-07T05:49:54;15.50;;;4.82;;
74543;SDS011;63016;55.030;38.710;2022-12-07T05:52:19;16.90;;;4.95;;
74543;SDS011;63016;55.030;38.710;2022-12-07T05:54:45;11.90;;;3.85;;
74543;SDS011;63016;55.030;38.710;2022-12-07T05:57:11;14.13;;;5.10;;
74543;SDS011;63016;55.030;38.710;2022-12-07T05:59:36;12.00;;;4.65;;
74543;SDS011;63016;55.030;38.710;2022-12-07T06:02:03;15.95;;;4.90;;
74543;SDS011;63016;55.030;38.710;2022-12-07T06:04:34;13.60;;;4.63;;
74543;SDS011;63016;55.030;38.710;2022-12-07T06:07:02;15.02;;;4.30;;
74543;SDS011;63016;55.030;38.710;2022-12-07T06:09:29;12.27;;;4.22;;
74543;SDS011;63016;55.030;38.710;2022-12-07T06:11:55;21.58;;;4.82;;
74543;SDS011;63016;55.030;38.710;2022-12-07T06:14:40;15.98;;;4.72;;
74543;SDS011;63016;55.030;38.710;2022-12-07T06:17:05;12.38;;;3.85;;
74543;SDS011;63016;55.030;38.710;2022-12-07T06:19:32;17.08;;;4.85;;
74543;SDS011;63016;55.030;38.710;2022-12-07T06:21:58;14.63;;;5.13;;
74543;SDS011;63016;55.030;38.710;2022-12-07T06:24:23;14.73;;;4.28;;
74543;SDS011;63016;55.030;38.710;2022-12-07T06:26:49;12.38;;;4.65;;
74543;SDS011;63016;55.030;38.710;2022-12-07T06:29:15;13.68;;;4.43;;
74543;SDS011;63016;55.030;38.710;2022-12-07T06:31:42;14.35;;;4.38;;
74543;SDS011;63016;55.030;38.710;2022-12-07T06:34:11;13.73;;;4.70;;
74543;SDS011;63016;55.030;38.710;2022-12-07T06:36:39;13.48;;;4.70;;
74543;SDS011;63016;55.030;38.710;2022-12-07T06:39:05;14.95;;;4.88;;
74543;SDS011;63016;55.030;38.710;2022-12-07T06:41:31;12.48;;;5.28;;
74543;SDS011;63016;55.030;38.710;2022-12-07T06:43:57;11.77;;;4.43;;
74543;SDS011;63016;55.030;38.710;2022-12-07T06:46:22;13.07;;;5.30;;
74543;SDS011;63016;55.030;38.710;2022-12-07T06:48:48;14.60;;;4.20;;
74543;SDS011;63016;55.030;38.710;2022-12-07T06:51:14;14.45;;;5.72;;
74543;SDS011;63016;55.030;38.710;2022-12-07T06:53:40;15.40;;;5.13;;
74543;SDS011;63016;55.030;38.710;2022-12-07T06:56:05;17.55;;;5.53;;
74543;SDS011;63016;55.030;38.710;2022-12-07T06:58:31;12.48;;;4.75;;
74543;SDS011;63016;55.030;38.710;2022-12-07T07:00:57;14.10;;;4.90;;
74543;SDS011;63016;55.030;38.710;2022-12-07T07:03:22;13.32;;;4.72;;
74543;SDS011;63016;55.030;38.710;2022-12-07T07:05:48;20.35;;;4.93;;
74543;SDS011;63016;55.030;38.710;2022-12-07T07:08:13;13.82;;;5.25;;
74543;SDS011;63016;55.030;38.710;2022-12-07T07:10:39;14.40;;;5.38;;
74543;SDS011;63016;55.030;38.710;2022-12-07T07:13:05;12.35;;;5.18;;
74543;SDS011;63016;55.030;38.710;2022-12-07T07:15:31;14.35;;;5.10;;
74543;SDS011;63016;55.030;38.710;2022-12-07T07:17:57;13.75;;;4.70;;
74543;SDS011;63016;55.030;38.710;2022-12-07T07:20:23;15.82;;;5.40;;
74543;SDS011;63016;55.030;38.710;2022-12-07T07:22:49;15.85;;;5.50;;
74543;SDS011;63016;55.030;38.710;2022-12-07T07:25:15;15.88;;;4.95;;
74543;SDS011;63016;55.030;38.710;2022-12-07T07:27:40;15.35;;;4.60;;
74543;SDS011;63016;55.030;38.710;2022-12-07T07:30:06;13.43;;;4.50;;
74543;SDS011;63016;55.030;38.710;2022-12-07T07:32:33;15.05;;;5.88;;
74543;SDS011;63016;55.030;38.710;2022-12-07T07:34:59;15.00;;;4.63;;
74543;SDS011;63016;55.030;38.710;2022-12-07T07:37:24;17.17;;;5.30;;
74543;SDS011;63016;55.030;38.710;2022-12-07T07:39:50;16.10;;;5.22;;
74543;SDS011;63016;55.030;38.710;2022-12-07T07:42:16;13.50;;;5.00;;
74543;SDS011;63016;55.030;38.710;2022-12-07T07:44:41;11.80;;;4.50;;
74543;SDS011;63016;55.030;38.710;2022-12-07T07:47:07;13.40;;;4.97;;
74543;SDS011;63016;55.030;38.710;2022-12-07T07:49:32;12.70;;;4.50;;
74543;SDS011;63016;55.030;38.710;2022-12-07T07:51:58;13.80;;;5.05;;
74543;SDS011;63016;55.030;38.710;2022-12-07T07:54:23;14.55;;;4.40;;
74543;SDS011;63016;55.030;38.710;2022-12-07T07:56:49;10.60;;;3.80;;
74543;SDS011;63016;55.030;38.710;2022-12-07T07:59:15;12.88;;;4.25;;
74543;SDS011;63016;55.030;38.710;2022-12-07T08:01:41;14.27;;;4.30;;
74543;SDS011;63016;55.030;38.710;2022-12-07T08:04:06;15.60;;;4.55;;
74543;SDS011;63016;55.030;38.710;2022-12-07T08:06:32;15.90;;;4.68;;
74543;SDS011;63016;55.030;38.710;2022-12-07T08:08:57;15.23;;;4.70;;
74543;SDS011;63016;55.030;38.710;2022-12-07T08:11:23;16.08;;;4.82;;
74543;SDS011;63016;55.030;38.710;2022-12-07T08:13:49;15.23;;;4.53;;
74543;SDS011;63016;55.030;38.710;2022-12-07T08:16:15;13.70;;;4.10;;
74543;SDS011;63016;55.030;38.710;2022-12-07T08:18:41;15.93;;;4.88;;
74543;SDS011;63016;55.030;38.710;2022-12-07T08:21:08;12.98;;;5.03;;
74543;SDS011;63016;55.030;38.710;2022-12-07T08:23:36;14.70;;;5.03;;
74543;SDS011;63016;55.030;38.710;2022-12-07T08:26:05;14.02;;;4.35;;
74543;SDS011;63016;55.030;38.710;2022-12-07T08:28:33;11.98;;;4.22;;
74543;SDS011;63016;55.030;38.710;2022-12-07T08:30:59;12.45;;;4.15;;
74543;SDS011;63016;55.030;38.710;2022-12-07T08:33:25;17.52;;;4.70;;
74543;SDS011;63016;55.030;38.710;2022-12-07T08:35:51;13.35;;;4.50;;
74543;SDS011;63016;55.030;38.710;2022-12-07T08:38:16;13.80;;;3.75;;
74543;SDS011;63016;55.030;38.710;2022-12-07T08:40:42;16.02;;;4.70;;
74543;SDS011;63016;55.030;38.710;2022-12-07T08:43:07;11.55;;;4.00;;
74543;SDS011;63016;55.030;38.710;2022-12-07T08:45:33;12.27;;;4.55;;
74543;SDS011;63016;55.030;38.710;2022-12-07T08:48:07;13.88;;;3.88;;
74543;SDS011;63016;55.030;38.710;2022-12-07T08:50:36;17.25;;;4.20;;
74543;SDS011;63016;55.030;38.710;2022-12-07T08:53:03;14.68;;;4.38;;
74543;SDS011;63016;55.030;38.710;2022-12-07T08:55:30;10.35;;;4.30;;
74543;SDS011;63016;55.030;38.710;2022-12-07T08:57:58;13.90;;;4.50;;
74543;SDS011;63016;55.030;38.710;2022-12-07T09:00:25;15.70;;;4.68;;
74543;SDS011;63016;55.030;38.710;2022-12-07T09:02:51;14.18;;;4.38;;
74543;SDS011;63016;55.030;38.710;2022-12-07T09:05:18;14.77;;;4.43;;
74543;SDS011;63016;55.030;38.710;2022-12-07T09:07:45;11.60;;;4.22;;
74543;SDS011;63016;55.030;38.710;2022-12-07T09:10:12;12.02;;;4.45;;
74543;SDS011;63016;55.030;38.710;2022-12-07T09:12:38;14.25;;;4.90;;
74543;SDS011;63016;55.030;38.710;2022-12-07T09:15:03;12.75;;;4.13;;
74543;SDS011;63016;55.030;38.710;2022-12-07T09:17:31;12.00;;;4.45;;
74543;SDS011;63016;55.030;38.710;2022-12-07T09:19:58;14.68;;;5.05;;
74543;SDS011;63016;55.030;38.710;2022-12-07T09:22:23;11.25;;;4.57;;
74543;SDS011;63016;55.030;38.710;2022-12-07T09:24:49;15.70;;;5.65;;
74543;SDS011;63016;55.030;38.710;2022-12-07T09:27:14;17.42;;;5.13;;
74543;SDS011;63016;55.030;38.710;2022-12-07T09:29:42;16.73;;;5.78;;
74543;SDS011;63016;55.030;38.710;2022-12-07T09:32:08;15.77;;;5.05;;
74543;SDS011;63016;55.030;38.710;2022-12-07T09:34:33;14.85;;;5.47;;
74543;SDS011;63016;55.030;38.710;2022-12-07T09:37:00;15.82;;;4.82;;
74543;SDS011;63016;55.030;38.710;2022-12-07T09:39:25;12.27;;;4.72;;
74543;SDS011;63016;55.030;38.710;2022-12-07T09:41:51;12.75;;;4.80;;
74543;SDS011;63016;55.030;38.710;2022-12-07T09:44:20;12.57;;;5.18;;
74543;SDS011;63016;55.030;38.710;2022-12-07T09:46:48;11.10;;;4.85;;
74543;SDS011;63016;55.030;38.710;2022-12-07T09:49:25;14.88;;;5.32;;
74543;SDS011;63016;55.030;38.710;2022-12-07T09:52:03;15.80;;;5.53;;
74543;SDS011;63016;55.030;38.710;2022-12-07T09:54:29;17.02;;;5.40;;
74543;SDS011;63016;55.030;38.710;2022-12-07T09:56:56;12.65;;;5.00;;
74543;SDS011;63016;55.030;38.710;2022-12-07T09:59:21;16.90;;;5.50;;
74543;SDS011;63016;55.030;38.710;2022-12-07T10:01:48;13.35;;;5.25;;
74543;SDS011;63016;55.030;38.710;2022-12-07T10:06:46;12.75;;;5.25;;
74543;SDS011;63016;55.030;38.710;2022-12-07T10:09:14;13.88;;;5.38;;
74543;SDS011;63016;55.030;38.710;2022-12-07T10:12:00;15.70;;;5.50;;
74543;SDS011;63016;55.030;38.710;2022-12-07T10:14:30;14.23;;;5.90;;
74543;SDS011;63016;55.030;38.710;2022-12-07T10:16:57;14.93;;;5.25;;
74543;SDS011;63016;55.030;38.710;2022-12-07T10:19:27;13.15;;;5.65;;
74543;SDS011;63016;55.030;38.710;2022-12-07T10:24:35;14.43;;;4.82;;
74543;SDS011;63016;55.030;38.710;2022-12-07T10:27:02;13.00;;;5.38;;
74543;SDS011;63016;55.030;38.710;2022-12-07T10:32:04;13.38;;;5.15;;
74543;SDS011;63016;55.030;38.710;2022-12-07T10:34:50;16.33;;;6.45;;
74543;SDS011;63016;55.030;38.710;2022-12-07T10:37:18;15.43;;;5.60;;
74543;SDS011;63016;55.030;38.710;2022-12-07T10:39:46;13.13;;;4.85;;
74543;SDS011;63016;55.030;38.710;2022-12-07T11:12:40;15.60;;;5.57;;
74543;SDS011;63016;55.030;38.710;2022-12-07T11:18:24;14.73;;;5.25;;
74543;SDS011;63016;55.030;38.710;2022-12-07T11:26:24;13.75;;;5.03;;
74543;SDS011;63016;55.030;38.710;2022-12-07T11:37:35;14.30;;;5.50;;
74543;SDS011;63016;55.030;38.710;2022-12-07T11:40:04;13.63;;;5.25;;
74543;SDS011;63016;55.030;38.710;2022-12-07T11:42:33;18.55;;;4.85;;
74543;SDS011;63016;55.030;38.710;2022-12-07T11:50:52;18.13;;;4.70;;
74543;SDS011;63016;55.030;38.710;2022-12-07T11:53:26;12.40;;;4.88;;
74543;SDS011;63016;55.030;38.710;2022-12-07T11:56:15;14.55;;;4.93;;
74543;SDS011;63016;55.030;38.710;2022-12-07T12:01:20;14.77;;;4.88;;
74543;SDS011;63016;55.030;38.710;2022-12-07T12:06:40;15.45;;;5.30;;
74543;SDS011;63016;55.030;38.710;2022-12-07T12:20:42;10.48;;;4.07;;
74543;SDS011;63016;55.030;38.710;2022-12-07T12:23:13;14.35;;;4.72;;
74543;SDS011;63016;55.030;38.710;2022-12-07T12:25:47;13.93;;;4.75;;
74543;SDS011;63016;55.030;38.710;2022-12-07T12:28:33;12.65;;;4.70;;
74543;SDS011;63016;55.030;38.710;2022-12-07T12:33:52;11.13;;;4.30;;
74543;SDS011;63016;55.030;38.710;2022-12-07T12:46:52;14.13;;;5.10;;
74543;SDS011;63016;55.030;38.710;2022-12-07T12:51:49;14.63;;;4.70;;
74543;SDS011;63016;55.030;38.710;2022-12-07T12:54:32;14.68;;;4.35;;
74543;SDS011;63016;55.030;38.710;2022-12-07T12:57:13;13.82;;;4.57;;
74543;SDS011;63016;55.030;38.710;2022-12-07T12:59:56;14.35;;;4.90;;
74543;SDS011;63016;55.030;38.710;2022-12-07T13:10:22;12.90;;;4.68;;
74543;SDS011;63016;55.030;38.710;2022-12-07T13:13:02;11.18;;;4.18;;
74543;SDS011;63016;55.030;38.710;2022-12-07T13:15:44;20.80;;;3.70;;
74543;SDS011;63016;55.030;38.710;2022-12-07T13:26:21;13.73;;;4.95;;
74543;SDS011;63016;55.030;38.710;2022-12-07T13:29:18;10.52;;;4.00;;
74543;SDS011;63016;55.030;38.710;2022-12-07T13:31:52;12.85;;;4.78;;
74543;SDS011;63016;55.030;38.710;2022-12-07T13:37:02;15.07;;;4.55;;
74543;SDS011;63016;55.030;38.710;2022-12-07T13:39:32;13.43;;;4.78;;
74543;SDS011;63016;55.030;38.710;2022-12-07T13:42:06;13.45;;;4.55;;
74543;SDS011;63016;55.030;38.710;2022-12-07T13:44:40;13.43;;;4.63;;
74543;SDS011;63016;55.030;38.710;2022-12-07T13:47:19;13.38;;;4.65;;
74543;SDS011;63016;55.030;38.710;2022-12-07T13:52:58;13.25;;;4.38;;
74543;SDS011;63016;55.030;38.710;2022-12-07T13:55:26;10.32;;;4.43;;
74543;SDS011;63016;55.030;38.710;2022-12-07T13:57:53;11.07;;;3.60;;
74543;SDS011;63016;55.030;38.710;2022-12-07T14:00:23;12.30;;;4.10;;
74543;SDS011;63016;55.030;38.710;2022-12-07T14:03:01;17.23;;;4.97;;
74543;SDS011;63016;55.030;38.710;2022-12-07T14:05:39;9.52;;;3.60;;
74543;SDS011;63016;55.030;38.710;2022-12-07T14:13:03;13.25;;;4.18;;
74543;SDS011;63016;55.030;38.710;2022-12-07T14:18:49;12.07;;;4.10;;
74543;SDS011;63016;55.030;38.710;2022-12-07T14:21:16;11.57;;;3.83;;
74543;SDS011;63016;55.030;38.710;2022-12-07T14:23:44;12.38;;;4.38;;
74543;SDS011;63016;55.030;38.710;2022-12-07T14:26:11;12.45;;;3.97;;
74543;SDS011;63016;55.030;38.710;2022-12-07T14:28:41;11.38;;;4.20;;
74543;SDS011;63016;55.030;38.710;2022-12-07T14:31:10;11.82;;;4.25;;
74543;SDS011;63016;55.030;38.710;2022-12-07T14:33:38;8.85;;;3.35;;
74543;SDS011;63016;55.030;38.710;2022-12-07T14:36:04;10.77;;;3.72;;
74543;SDS011;63016;55.030;38.710;2022-12-07T14:38:30;11.68;;;3.67;;
74543;SDS011;63016;55.030;38.710;2022-12-07T14:40:55;9.85;;;4.13;;
74543;SDS011;63016;55.030;38.710;2022-12-07T14:43:41;11.98;;;3.72;;
74543;SDS011;63016;55.030;38.710;2022-12-07T14:46:07;11.60;;;4.10;;
74543;SDS011;63016;55.030;38.710;2022-12-07T14:48:33;11.85;;;4.03;;
74543;SDS011;63016;55.030;38.710;2022-12-07T14:50:59;9.18;;;3.90;;
74543;SDS011;63016;55.030;38.710;2022-12-07T14:53:27;8.60;;;3.75;;
74543;SDS011;63016;55.030;38.710;2022-12-07T14:55:56;13.70;;;3.97;;
74543;SDS011;63016;55.030;38.710;2022-12-07T14:58:22;12.98;;;4.45;;
74543;SDS011;63016;55.030;38.710;2022-12-07T15:00:47;10.55;;;3.92;;
74543;SDS011;63016;55.030;38.710;2022-12-07T15:03:13;11.00;;;3.78;;
74543;SDS011;63016;55.030;38.710;2022-12-07T15:05:39;12.60;;;4.20;;
74543;SDS011;63016;55.030;38.710;2022-12-07T15:08:05;9.40;;;3.38;;
74543;SDS011;63016;55.030;38.710;2022-12-07T15:10:33;12.32;;;4.03;;
74543;SDS011;63016;55.030;38.710;2022-12-07T15:13:00;12.20;;;3.97;;
74543;SDS011;63016;55.030;38.710;2022-12-07T15:15:46;12.88;;;3.92;;
74543;SDS011;63016;55.030;38.710;2022-12-07T15:18:12;13.40;;;3.85;;
74543;SDS011;63016;55.030;38.710;2022-12-07T15:20:38;11.65;;;3.90;;
74543;SDS011;63016;55.030;38.710;2022-12-07T15:23:04;11.82;;;4.32;;
74543;SDS011;63016;55.030;38.710;2022-12-07T15:25:30;10.00;;;3.75;;
74543;SDS011;63016;55.030;38.710;2022-12-07T15:27:55;11.43;;;3.92;;
74543;SDS011;63016;55.030;38.710;2022-12-07T15:30:21;12.13;;;3.72;;
74543;SDS011;63016;55.030;38.710;2022-12-07T15:32:50;11.80;;;3.97;;
74543;SDS011;63016;55.030;38.710;2022-12-07T15:35:16;10.07;;;3.90;;
74543;SDS011;63016;55.030;38.710;2022-12-07T15:37:42;10.45;;;4.05;;
74543;SDS011;63016;55.030;38.710;2022-12-07T15:40:08;13.50;;;3.42;;
74543;SDS011;63016;55.030;38.710;2022-12-07T15:42:37;8.35;;;3.35;;
74543;SDS011;63016;55.030;38.710;2022-12-07T15:45:04;12.35;;;4.15;;
74543;SDS011;63016;55.030;38.710;2022-12-07T15:47:35;10.38;;;3.75;;
74543;SDS011;63016;55.030;38.710;2022-12-07T15:50:07;10.93;;;3.63;;
74543;SDS011;63016;55.030;38.710;2022-12-07T15:52:34;10.18;;;3.40;;
74543;SDS011;63016;55.030;38.710;2022-12-07T15:55:00;14.05;;;4.00;;
74543;SDS011;63016;55.030;38.710;2022-12-07T15:57:27;11.73;;;3.85;;
74543;SDS011;63016;55.030;38.710;2022-12-07T15:59:53;9.43;;;3.50;;
74543;SDS011;63016;55.030;38.710;2022-12-07T16:02:19;9.77;;;3.63;;
74543;SDS011;63016;55.030;38.710;2022-12-07T16:04:44;7.65;;;3.47;;
74543;SDS011;63016;55.030;38.710;2022-12-07T16:07:11;10.65;;;3.50;;
74543;SDS011;63016;55.030;38.710;2022-12-07T16:09:37;15.75;;;4.00;;
74543;SDS011;63016;55.030;38.710;2022-12-07T16:12:03;10.15;;;3.60;;
74543;SDS011;63016;55.030;38.710;2022-12-07T16:14:28;18.13;;;3.78;;
74543;SDS011;63016;55.030;38.710;2022-12-07T16:16:54;12.20;;;4.30;;
74543;SDS011;63016;55.030;38.710;2022-12-07T16:19:20;11.82;;;4.20;;
74543;SDS011;63016;55.030;38.710;2022-12-07T16:21:45;10.20;;;3.15;;
74543;SDS011;63016;55.030;38.710;2022-12-07T16:24:11;11.63;;;4.05;;
74543;SDS011;63016;55.030;38.710;2022-12-07T16:26:38;7.90;;;3.28;;
74543;SDS011;63016;55.030;38.710;2022-12-07T16:29:06;11.90;;;3.80;;
74543;SDS011;63016;55.030;38.710;2022-12-07T16:31:31;10.50;;;4.22;;
74543;SDS011;63016;55.030;38.710;2022-12-07T16:33:57;9.90;;;3.55;;
74543;SDS011;63016;55.030;38.710;2022-12-07T16:36:24;12.45;;;4.03;;
74543;SDS011;63016;55.030;38.710;2022-12-07T16:38:50;14.38;;;4.57;;
74543;SDS011;63016;55.030;38.710;2022-12-07T16:41:16;12.82;;;3.58;;
74543;SDS011;63016;55.030;38.710;2022-12-07T16:43:44;11.27;;;4.00;;
74543;SDS011;63016;55.030;38.710;2022-12-07T16:46:10;9.60;;;3.25;;
74543;SDS011;63016;55.030;38.710;2022-12-07T16:48:39;11.25;;;3.45;;
74543;SDS011;63016;55.030;38.710;2022-12-07T16:51:06;11.15;;;3.83;;
74543;SDS011;63016;55.030;38.710;2022-12-07T16:53:34;8.75;;;3.70;;
74543;SDS011;63016;55.030;38.710;2022-12-07T16:56:01;12.30;;;3.80;;
74543;SDS011;63016;55.030;38.710;2022-12-07T16:58:26;13.20;;;4.45;;
74543;SDS011;63016;55.030;38.710;2022-12-07T17:00:52;11.75;;;4.55;;
74543;SDS011;63016;55.030;38.710;2022-12-07T17:03:18;12.27;;;4.10;;
74543;SDS011;63016;55.030;38.710;2022-12-07T17:05:46;10.80;;;4.47;;
74543;SDS011;63016;55.030;38.710;2022-12-07T17:08:11;10.30;;;3.60;;
74543;SDS011;63016;55.030;38.710;2022-12-07T17:10:39;11.45;;;4.10;;
74543;SDS011;63016;55.030;38.710;2022-12-07T17:13:07;11.88;;;3.55;;
74543;SDS011;63016;55.030;38.710;2022-12-07T17:16:09;12.85;;;3.90;;